sensor_id;sensor_type;location;lat;lon;timestamp;P1;durP1;ratioP1;P2;durP2;ratioP2
38479;SDS011;62333;51.980;5.934;2022-12-18T00:01:29;51.17;;;24.13;;
38479;SDS011;62333;51.980;5.934;2022-12-18T00:03:59;41.70;;;23.17;;
38479;SDS011;62333;51.980;5.934;2022-12-18T00:06:27;45.42;;;25.27;;
38479;SDS011;62333;51.980;5.934;2022-12-18T00:08:55;46.15;;;24.42;;
38479;SDS011;62333;51.980;5.934;2022-12-18T00:11:22;36.75;;;20.75;;
38479;SDS011;62333;51.980;5.934;2022-12-18T00:13:50;40.88;;;21.65;;
38479;SDS011;62333;51.980;5.934;2022-12-18T00:16:17;44.50;;;23.38;;
38479;SDS011;62333;51.980;5.934;2022-12-18T00:18:45;40.85;;;21.60;;
38479;SDS011;62333;51.980;5.934;2022-12-18T00:21:16;43.95;;;24.13;;
38479;SDS011;62333;51.980;5.934;2022-12-18T00:23:42;37.08;;;21.67;;
38479;SDS011;62333;51.980;5.934;2022-12-18T00:26:13;39.30;;;23.65;;
38479;SDS011;62333;51.980;5.934;2022-12-18T00:28:44;39.45;;;21.30;;
38479;SDS011;62333;51.980;5.934;2022-12-18T00:31:12;39.83;;;23.65;;
38479;SDS011;62333;51.980;5.934;2022-12-18T00:33:39;41.53;;;23.17;;
38479;SDS011;62333;51.980;5.934;2022-12-18T00:36:06;42.03;;;23.33;;
38479;SDS011;62333;51.980;5.934;2022-12-18T00:38:35;40.63;;;23.45;;
38479;SDS011;62333;51.980;5.934;2022-12-18T00:41:02;45.08;;;27.38;;
38479;SDS011;62333;51.980;5.934;2022-12-18T00:43:28;38.58;;;22.85;;
38479;SDS011;62333;51.980;5.934;2022-12-18T00:45:54;44.65;;;24.75;;
38479;SDS011;62333;51.980;5.934;2022-12-18T00:48:20;38.17;;;24.35;;
38479;SDS011;62333;51.980;5.934;2022-12-18T00:50:47;35.22;;;21.48;;
38479;SDS011;62333;51.980;5.934;2022-12-18T00:53:13;39.05;;;21.52;;
38479;SDS011;62333;51.980;5.934;2022-12-18T00:55:39;41.42;;;23.10;;
38479;SDS011;62333;51.980;5.934;2022-12-18T00:58:05;37.95;;;21.35;;
38479;SDS011;62333;51.980;5.934;2022-12-18T01:00:31;34.50;;;19.35;;
38479;SDS011;62333;51.980;5.934;2022-12-18T01:02:56;32.17;;;19.48;;
38479;SDS011;62333;51.980;5.934;2022-12-18T01:05:22;33.08;;;19.60;;
38479;SDS011;62333;51.980;5.934;2022-12-18T01:07:47;35.90;;;21.08;;
38479;SDS011;62333;51.980;5.934;2022-12-18T01:10:13;30.15;;;19.80;;
38479;SDS011;62333;51.980;5.934;2022-12-18T01:12:39;31.05;;;17.45;;
38479;SDS011;62333;51.980;5.934;2022-12-18T01:15:05;36.30;;;19.45;;
38479;SDS011;62333;51.980;5.934;2022-12-18T01:17:32;36.13;;;19.00;;
38479;SDS011;62333;51.980;5.934;2022-12-18T01:19:58;35.30;;;19.67;;
38479;SDS011;62333;51.980;5.934;2022-12-18T01:22:24;31.48;;;19.23;;
38479;SDS011;62333;51.980;5.934;2022-12-18T01:24:49;32.92;;;19.95;;
38479;SDS011;62333;51.980;5.934;2022-12-18T01:27:15;38.38;;;22.35;;
38479;SDS011;62333;51.980;5.934;2022-12-18T01:29:41;36.22;;;22.27;;
38479;SDS011;62333;51.980;5.934;2022-12-18T01:32:07;31.90;;;18.98;;
38479;SDS011;62333;51.980;5.934;2022-12-18T01:34:33;38.65;;;21.55;;
38479;SDS011;62333;51.980;5.934;2022-12-18T01:37:02;34.78;;;18.90;;
38479;SDS011;62333;51.980;5.934;2022-12-18T01:39:32;35.00;;;20.92;;
38479;SDS011;62333;51.980;5.934;2022-12-18T01:41:58;38.35;;;20.88;;
38479;SDS011;62333;51.980;5.934;2022-12-18T01:47:14;34.55;;;20.50;;
38479;SDS011;62333;51.980;5.934;2022-12-18T01:49:43;31.52;;;18.20;;
38479;SDS011;62333;51.980;5.934;2022-12-18T01:52:09;28.50;;;16.60;;
38479;SDS011;62333;51.980;5.934;2022-12-18T01:54:35;31.67;;;19.45;;
38479;SDS011;62333;51.980;5.934;2022-12-18T01:57:00;27.38;;;16.15;;
38479;SDS011;62333;51.980;5.934;2022-12-18T01:59:26;35.17;;;20.45;;
38479;SDS011;62333;51.980;5.934;2022-12-18T02:01:56;36.40;;;21.65;;
38479;SDS011;62333;51.980;5.934;2022-12-18T02:04:23;30.35;;;16.42;;
38479;SDS011;62333;51.980;5.934;2022-12-18T02:06:52;32.08;;;16.52;;
38479;SDS011;62333;51.980;5.934;2022-12-18T02:09:28;28.83;;;16.33;;
38479;SDS011;62333;51.980;5.934;2022-12-18T02:12:13;34.42;;;20.80;;
38479;SDS011;62333;51.980;5.934;2022-12-18T02:14:52;43.38;;;20.00;;
38479;SDS011;62333;51.980;5.934;2022-12-18T02:20:34;31.60;;;17.48;;
38479;SDS011;62333;51.980;5.934;2022-12-18T02:28:41;27.85;;;14.25;;
38479;SDS011;62333;51.980;5.934;2022-12-18T02:31:15;24.60;;;13.75;;
38479;SDS011;62333;51.980;5.934;2022-12-18T02:33:46;28.80;;;16.02;;
38479;SDS011;62333;51.980;5.934;2022-12-18T02:36:13;22.52;;;15.15;;
38479;SDS011;62333;51.980;5.934;2022-12-18T02:38:41;31.63;;;17.08;;
38479;SDS011;62333;51.980;5.934;2022-12-18T02:41:08;28.33;;;15.70;;
38479;SDS011;62333;51.980;5.934;2022-12-18T02:43:34;33.53;;;15.18;;
38479;SDS011;62333;51.980;5.934;2022-12-18T02:46:00;32.53;;;16.63;;
38479;SDS011;62333;51.980;5.934;2022-12-18T02:48:46;24.48;;;15.15;;
38479;SDS011;62333;51.980;5.934;2022-12-18T02:51:17;26.85;;;14.88;;
38479;SDS011;62333;51.980;5.934;2022-12-18T02:53:58;25.85;;;12.65;;
38479;SDS011;62333;51.980;5.934;2022-12-18T02:56:35;27.42;;;15.13;;
38479;SDS011;62333;51.980;5.934;2022-12-18T02:59:09;27.10;;;13.70;;
38479;SDS011;62333;51.980;5.934;2022-12-18T03:01:43;26.88;;;15.43;;
38479;SDS011;62333;51.980;5.934;2022-12-18T03:04:22;28.38;;;16.05;;
38479;SDS011;62333;51.980;5.934;2022-12-18T03:06:58;30.70;;;17.80;;
38479;SDS011;62333;51.980;5.934;2022-12-18T03:09:29;28.00;;;15.90;;
38479;SDS011;62333;51.980;5.934;2022-12-18T03:12:04;27.80;;;16.10;;
38479;SDS011;62333;51.980;5.934;2022-12-18T03:17:50;23.50;;;11.90;;
38479;SDS011;62333;51.980;5.934;2022-12-18T03:20:21;23.60;;;13.95;;
38479;SDS011;62333;51.980;5.934;2022-12-18T03:22:51;22.42;;;13.80;;
38479;SDS011;62333;51.980;5.934;2022-12-18T03:25:21;22.25;;;14.10;;
38479;SDS011;62333;51.980;5.934;2022-12-18T03:27:48;25.17;;;14.77;;
38479;SDS011;62333;51.980;5.934;2022-12-18T03:30:19;25.48;;;15.25;;
38479;SDS011;62333;51.980;5.934;2022-12-18T03:32:50;22.58;;;12.77;;
38479;SDS011;62333;51.980;5.934;2022-12-18T03:35:32;26.67;;;13.55;;
38479;SDS011;62333;51.980;5.934;2022-12-18T03:40:31;21.45;;;11.50;;
38479;SDS011;62333;51.980;5.934;2022-12-18T03:45:53;28.95;;;17.35;;
38479;SDS011;62333;51.980;5.934;2022-12-18T03:48:29;24.45;;;14.18;;
38479;SDS011;62333;51.980;5.934;2022-12-18T03:51:07;22.13;;;11.57;;
38479;SDS011;62333;51.980;5.934;2022-12-18T03:53:55;24.88;;;14.10;;
38479;SDS011;62333;51.980;5.934;2022-12-18T03:56:25;19.30;;;12.52;;
38479;SDS011;62333;51.980;5.934;2022-12-18T03:58:54;23.63;;;11.93;;
38479;SDS011;62333;51.980;5.934;2022-12-18T04:01:24;20.08;;;11.80;;
38479;SDS011;62333;51.980;5.934;2022-12-18T04:04:15;22.13;;;13.10;;
38479;SDS011;62333;51.980;5.934;2022-12-18T04:06:42;22.33;;;13.50;;
38479;SDS011;62333;51.980;5.934;2022-12-18T04:09:10;23.63;;;12.85;;
38479;SDS011;62333;51.980;5.934;2022-12-18T04:11:36;21.65;;;12.43;;
38479;SDS011;62333;51.980;5.934;2022-12-18T04:14:01;21.13;;;11.70;;
38479;SDS011;62333;51.980;5.934;2022-12-18T04:16:27;23.10;;;12.18;;
38479;SDS011;62333;51.980;5.934;2022-12-18T04:18:54;20.23;;;11.48;;
38479;SDS011;62333;51.980;5.934;2022-12-18T04:21:20;17.02;;;10.95;;
38479;SDS011;62333;51.980;5.934;2022-12-18T04:23:45;23.55;;;12.65;;
38479;SDS011;62333;51.980;5.934;2022-12-18T04:26:11;18.27;;;10.75;;
38479;SDS011;62333;51.980;5.934;2022-12-18T04:28:37;16.88;;;10.77;;
38479;SDS011;62333;51.980;5.934;2022-12-18T04:31:02;15.88;;;10.95;;
38479;SDS011;62333;51.980;5.934;2022-12-18T04:33:28;18.13;;;9.75;;
38479;SDS011;62333;51.980;5.934;2022-12-18T04:35:54;19.05;;;11.77;;
38479;SDS011;62333;51.980;5.934;2022-12-18T04:38:20;19.08;;;10.93;;
38479;SDS011;62333;51.980;5.934;2022-12-18T04:40:45;22.25;;;11.60;;
38479;SDS011;62333;51.980;5.934;2022-12-18T04:43:11;20.80;;;9.90;;
38479;SDS011;62333;51.980;5.934;2022-12-18T04:45:37;24.95;;;14.85;;
38479;SDS011;62333;51.980;5.934;2022-12-18T04:48:02;16.17;;;9.90;;
38479;SDS011;62333;51.980;5.934;2022-12-18T04:50:29;19.15;;;9.32;;
38479;SDS011;62333;51.980;5.934;2022-12-18T04:52:55;23.05;;;13.10;;
38479;SDS011;62333;51.980;5.934;2022-12-18T04:55:21;15.43;;;10.10;;
38479;SDS011;62333;51.980;5.934;2022-12-18T04:57:47;13.50;;;8.85;;
38479;SDS011;62333;51.980;5.934;2022-12-18T05:00:13;16.02;;;9.85;;
38479;SDS011;62333;51.980;5.934;2022-12-18T05:02:39;13.68;;;8.88;;
38479;SDS011;62333;51.980;5.934;2022-12-18T05:05:05;15.88;;;10.05;;
38479;SDS011;62333;51.980;5.934;2022-12-18T05:07:32;14.73;;;9.40;;
38479;SDS011;62333;51.980;5.934;2022-12-18T05:10:00;15.77;;;9.30;;
38479;SDS011;62333;51.980;5.934;2022-12-18T05:12:26;17.67;;;10.00;;
38479;SDS011;62333;51.980;5.934;2022-12-18T05:14:52;15.00;;;7.82;;
38479;SDS011;62333;51.980;5.934;2022-12-18T05:17:17;16.58;;;9.40;;
38479;SDS011;62333;51.980;5.934;2022-12-18T05:19:43;13.10;;;7.22;;
38479;SDS011;62333;51.980;5.934;2022-12-18T05:22:09;16.45;;;9.52;;
38479;SDS011;62333;51.980;5.934;2022-12-18T05:24:35;18.13;;;9.50;;
38479;SDS011;62333;51.980;5.934;2022-12-18T05:27:00;15.82;;;9.35;;
38479;SDS011;62333;51.980;5.934;2022-12-18T05:29:26;11.43;;;6.60;;
38479;SDS011;62333;51.980;5.934;2022-12-18T05:31:52;15.80;;;6.88;;
38479;SDS011;62333;51.980;5.934;2022-12-18T05:34:21;13.30;;;7.45;;
38479;SDS011;62333;51.980;5.934;2022-12-18T05:36:46;14.48;;;8.65;;
38479;SDS011;62333;51.980;5.934;2022-12-18T05:39:12;12.68;;;7.28;;
38479;SDS011;62333;51.980;5.934;2022-12-18T05:41:38;12.95;;;7.72;;
38479;SDS011;62333;51.980;5.934;2022-12-18T05:44:03;13.90;;;7.38;;
38479;SDS011;62333;51.980;5.934;2022-12-18T05:46:29;10.30;;;6.85;;
38479;SDS011;62333;51.980;5.934;2022-12-18T05:48:58;14.10;;;8.43;;
38479;SDS011;62333;51.980;5.934;2022-12-18T05:51:25;13.00;;;6.82;;
38479;SDS011;62333;51.980;5.934;2022-12-18T05:53:51;11.73;;;7.78;;
38479;SDS011;62333;51.980;5.934;2022-12-18T05:56:18;14.43;;;8.88;;
38479;SDS011;62333;51.980;5.934;2022-12-18T05:58:45;11.55;;;7.63;;
38479;SDS011;62333;51.980;5.934;2022-12-18T06:03:41;14.48;;;9.13;;
38479;SDS011;62333;51.980;5.934;2022-12-18T06:06:21;11.90;;;7.68;;
38479;SDS011;62333;51.980;5.934;2022-12-18T06:08:48;17.38;;;9.45;;
38479;SDS011;62333;51.980;5.934;2022-12-18T06:11:18;13.65;;;6.63;;
38479;SDS011;62333;51.980;5.934;2022-12-18T06:13:45;14.13;;;8.88;;
38479;SDS011;62333;51.980;5.934;2022-12-18T06:16:11;17.40;;;9.35;;
38479;SDS011;62333;51.980;5.934;2022-12-18T06:18:37;12.45;;;7.78;;
38479;SDS011;62333;51.980;5.934;2022-12-18T06:21:03;13.65;;;7.45;;
38479;SDS011;62333;51.980;5.934;2022-12-18T06:23:29;12.40;;;7.47;;
38479;SDS011;62333;51.980;5.934;2022-12-18T06:25:55;16.45;;;9.80;;
38479;SDS011;62333;51.980;5.934;2022-12-18T06:28:20;13.02;;;7.60;;
38479;SDS011;62333;51.980;5.934;2022-12-18T06:30:47;13.18;;;8.68;;
38479;SDS011;62333;51.980;5.934;2022-12-18T06:33:13;13.60;;;8.13;;
38479;SDS011;62333;51.980;5.934;2022-12-18T06:35:40;18.60;;;11.52;;
38479;SDS011;62333;51.980;5.934;2022-12-18T06:38:06;12.32;;;7.80;;
38479;SDS011;62333;51.980;5.934;2022-12-18T06:40:32;12.20;;;6.68;;
38479;SDS011;62333;51.980;5.934;2022-12-18T06:42:58;15.30;;;7.93;;
38479;SDS011;62333;51.980;5.934;2022-12-18T06:45:23;18.35;;;10.70;;
38479;SDS011;62333;51.980;5.934;2022-12-18T06:47:49;14.80;;;9.10;;
38479;SDS011;62333;51.980;5.934;2022-12-18T06:50:15;16.35;;;10.35;;
38479;SDS011;62333;51.980;5.934;2022-12-18T06:52:41;14.00;;;8.18;;
38479;SDS011;62333;51.980;5.934;2022-12-18T06:55:08;12.95;;;7.50;;
38479;SDS011;62333;51.980;5.934;2022-12-18T06:57:35;13.80;;;8.50;;
38479;SDS011;62333;51.980;5.934;2022-12-18T07:00:02;13.75;;;7.53;;
38479;SDS011;62333;51.980;5.934;2022-12-18T07:02:29;11.45;;;6.40;;
38479;SDS011;62333;51.980;5.934;2022-12-18T07:04:55;18.40;;;9.27;;
38479;SDS011;62333;51.980;5.934;2022-12-18T07:07:20;12.82;;;8.15;;
38479;SDS011;62333;51.980;5.934;2022-12-18T07:09:46;16.17;;;10.38;;
38479;SDS011;62333;51.980;5.934;2022-12-18T07:12:11;14.85;;;9.13;;
38479;SDS011;62333;51.980;5.934;2022-12-18T07:14:37;15.70;;;9.48;;
38479;SDS011;62333;51.980;5.934;2022-12-18T07:17:03;14.15;;;8.48;;
38479;SDS011;62333;51.980;5.934;2022-12-18T07:19:29;15.93;;;8.57;;
38479;SDS011;62333;51.980;5.934;2022-12-18T07:21:54;19.17;;;9.57;;
38479;SDS011;62333;51.980;5.934;2022-12-18T07:24:20;15.23;;;9.00;;
38479;SDS011;62333;51.980;5.934;2022-12-18T07:26:46;18.38;;;10.88;;
38479;SDS011;62333;51.980;5.934;2022-12-18T07:29:12;16.00;;;9.35;;
38479;SDS011;62333;51.980;5.934;2022-12-18T07:31:38;18.08;;;9.63;;
38479;SDS011;62333;51.980;5.934;2022-12-18T07:34:04;19.02;;;9.73;;
38479;SDS011;62333;51.980;5.934;2022-12-18T07:36:29;20.17;;;11.27;;
38479;SDS011;62333;51.980;5.934;2022-12-18T07:38:55;18.52;;;11.02;;
38479;SDS011;62333;51.980;5.934;2022-12-18T07:41:21;18.38;;;8.85;;
38479;SDS011;62333;51.980;5.934;2022-12-18T07:43:47;16.95;;;10.32;;
38479;SDS011;62333;51.980;5.934;2022-12-18T07:46:13;15.07;;;9.30;;
38479;SDS011;62333;51.980;5.934;2022-12-18T07:48:41;15.38;;;8.20;;
38479;SDS011;62333;51.980;5.934;2022-12-18T07:51:07;17.75;;;9.18;;
38479;SDS011;62333;51.980;5.934;2022-12-18T07:53:34;20.25;;;8.30;;
38479;SDS011;62333;51.980;5.934;2022-12-18T07:56:01;16.15;;;10.75;;
38479;SDS011;62333;51.980;5.934;2022-12-18T07:58:30;24.10;;;10.63;;
38479;SDS011;62333;51.980;5.934;2022-12-18T08:01:05;16.75;;;8.32;;
38479;SDS011;62333;51.980;5.934;2022-12-18T08:03:32;16.92;;;10.10;;
38479;SDS011;62333;51.980;5.934;2022-12-18T08:05:58;16.67;;;10.45;;
38479;SDS011;62333;51.980;5.934;2022-12-18T08:08:25;14.57;;;8.60;;
38479;SDS011;62333;51.980;5.934;2022-12-18T08:10:50;18.65;;;8.95;;
38479;SDS011;62333;51.980;5.934;2022-12-18T08:13:16;14.57;;;8.13;;
38479;SDS011;62333;51.980;5.934;2022-12-18T08:15:42;19.50;;;8.35;;
38479;SDS011;62333;51.980;5.934;2022-12-18T08:18:07;15.10;;;8.98;;
38479;SDS011;62333;51.980;5.934;2022-12-18T08:20:33;15.82;;;8.60;;
38479;SDS011;62333;51.980;5.934;2022-12-18T08:22:58;15.82;;;9.60;;
38479;SDS011;62333;51.980;5.934;2022-12-18T08:25:24;14.35;;;8.15;;
38479;SDS011;62333;51.980;5.934;2022-12-18T08:27:50;19.42;;;9.35;;
38479;SDS011;62333;51.980;5.934;2022-12-18T08:30:15;15.07;;;8.20;;
38479;SDS011;62333;51.980;5.934;2022-12-18T08:32:41;13.30;;;8.70;;
38479;SDS011;62333;51.980;5.934;2022-12-18T08:35:07;12.18;;;6.80;;
38479;SDS011;62333;51.980;5.934;2022-12-18T08:37:33;13.52;;;7.75;;
38479;SDS011;62333;51.980;5.934;2022-12-18T08:39:59;13.40;;;6.95;;
38479;SDS011;62333;51.980;5.934;2022-12-18T08:42:25;14.10;;;9.48;;
38479;SDS011;62333;51.980;5.934;2022-12-18T08:45:09;12.20;;;7.30;;
38479;SDS011;62333;51.980;5.934;2022-12-18T08:47:35;12.10;;;6.80;;
38479;SDS011;62333;51.980;5.934;2022-12-18T08:50:01;14.82;;;9.55;;
38479;SDS011;62333;51.980;5.934;2022-12-18T08:52:26;14.13;;;7.55;;
38479;SDS011;62333;51.980;5.934;2022-12-18T08:54:53;13.80;;;7.80;;
38479;SDS011;62333;51.980;5.934;2022-12-18T08:57:18;11.88;;;7.25;;
38479;SDS011;62333;51.980;5.934;2022-12-18T08:59:44;12.30;;;6.38;;
38479;SDS011;62333;51.980;5.934;2022-12-18T09:02:10;15.50;;;7.65;;
38479;SDS011;62333;51.980;5.934;2022-12-18T09:04:36;12.35;;;7.85;;
38479;SDS011;62333;51.980;5.934;2022-12-18T09:07:02;10.45;;;5.95;;
38479;SDS011;62333;51.980;5.934;2022-12-18T09:09:27;11.38;;;6.53;;
38479;SDS011;62333;51.980;5.934;2022-12-18T09:11:53;12.73;;;7.90;;
38479;SDS011;62333;51.980;5.934;2022-12-18T09:14:19;13.52;;;6.25;;
38479;SDS011;62333;51.980;5.934;2022-12-18T09:16:45;11.00;;;6.30;;
38479;SDS011;62333;51.980;5.934;2022-12-18T09:19:10;9.50;;;5.57;;
38479;SDS011;62333;51.980;5.934;2022-12-18T09:21:36;12.95;;;7.32;;
38479;SDS011;62333;51.980;5.934;2022-12-18T09:24:03;13.82;;;8.65;;
38479;SDS011;62333;51.980;5.934;2022-12-18T09:26:29;9.30;;;5.90;;
38479;SDS011;62333;51.980;5.934;2022-12-18T09:28:55;13.93;;;6.45;;
38479;SDS011;62333;51.980;5.934;2022-12-18T09:31:21;12.88;;;6.00;;
38479;SDS011;62333;51.980;5.934;2022-12-18T09:33:48;10.32;;;7.70;;
38479;SDS011;62333;51.980;5.934;2022-12-18T09:36:15;13.35;;;6.97;;
38479;SDS011;62333;51.980;5.934;2022-12-18T09:38:42;11.45;;;6.22;;
38479;SDS011;62333;51.980;5.934;2022-12-18T09:44:02;11.93;;;6.78;;
38479;SDS011;62333;51.980;5.934;2022-12-18T09:46:43;9.65;;;4.97;;
38479;SDS011;62333;51.980;5.934;2022-12-18T09:49:26;13.50;;;8.27;;
38479;SDS011;62333;51.980;5.934;2022-12-18T09:52:00;10.77;;;6.43;;
38479;SDS011;62333;51.980;5.934;2022-12-18T09:54:40;12.45;;;7.25;;
38479;SDS011;62333;51.980;5.934;2022-12-18T09:57:30;12.00;;;5.47;;
38479;SDS011;62333;51.980;5.934;2022-12-18T09:59:57;9.68;;;5.18;;
38479;SDS011;62333;51.980;5.934;2022-12-18T10:02:40;12.35;;;5.75;;
38479;SDS011;62333;51.980;5.934;2022-12-18T10:05:06;17.38;;;7.22;;
38479;SDS011;62333;51.980;5.934;2022-12-18T10:16:00;11.52;;;7.18;;
38479;SDS011;62333;51.980;5.934;2022-12-18T10:21:44;12.35;;;6.95;;
38479;SDS011;62333;51.980;5.934;2022-12-18T10:24:22;11.85;;;6.93;;
38479;SDS011;62333;51.980;5.934;2022-12-18T10:26:56;12.65;;;6.80;;
38479;SDS011;62333;51.980;5.934;2022-12-18T10:29:33;8.75;;;4.90;;
38479;SDS011;62333;51.980;5.934;2022-12-18T10:31:59;13.13;;;7.30;;
38479;SDS011;62333;51.980;5.934;2022-12-18T10:34:25;10.27;;;6.20;;
38479;SDS011;62333;51.980;5.934;2022-12-18T10:36:50;12.90;;;5.88;;
38479;SDS011;62333;51.980;5.934;2022-12-18T10:39:17;14.30;;;6.82;;
38479;SDS011;62333;51.980;5.934;2022-12-18T10:41:45;11.10;;;6.78;;
38479;SDS011;62333;51.980;5.934;2022-12-18T10:44:18;13.20;;;5.95;;
38479;SDS011;62333;51.980;5.934;2022-12-18T10:46:49;11.30;;;5.63;;
38479;SDS011;62333;51.980;5.934;2022-12-18T10:49:23;11.35;;;6.63;;
38479;SDS011;62333;51.980;5.934;2022-12-18T10:54:50;10.55;;;5.65;;
38479;SDS011;62333;51.980;5.934;2022-12-18T10:57:31;13.05;;;7.78;;
38479;SDS011;62333;51.980;5.934;2022-12-18T11:00:03;11.47;;;7.07;;
38479;SDS011;62333;51.980;5.934;2022-12-18T11:02:47;13.38;;;6.88;;
38479;SDS011;62333;51.980;5.934;2022-12-18T11:05:32;13.18;;;5.97;;
38479;SDS011;62333;51.980;5.934;2022-12-18T11:07:59;16.60;;;6.43;;
38479;SDS011;62333;51.980;5.934;2022-12-18T11:13:17;12.77;;;7.53;;
38479;SDS011;62333;51.980;5.934;2022-12-18T11:15:45;12.98;;;7.80;;
38479;SDS011;62333;51.980;5.934;2022-12-18T11:21:07;13.90;;;8.52;;
38479;SDS011;62333;51.980;5.934;2022-12-18T11:23:35;12.93;;;7.80;;
38479;SDS011;62333;51.980;5.934;2022-12-18T11:26:15;14.77;;;9.07;;
38479;SDS011;62333;51.980;5.934;2022-12-18T11:28:43;11.23;;;6.25;;
38479;SDS011;62333;51.980;5.934;2022-12-18T11:34:07;12.38;;;6.28;;
38479;SDS011;62333;51.980;5.934;2022-12-18T11:36:40;15.52;;;9.48;;
38479;SDS011;62333;51.980;5.934;2022-12-18T11:41:50;11.43;;;6.22;;
38479;SDS011;62333;51.980;5.934;2022-12-18T11:50:00;11.60;;;6.57;;
38479;SDS011;62333;51.980;5.934;2022-12-18T11:52:31;12.82;;;7.70;;
38479;SDS011;62333;51.980;5.934;2022-12-18T11:55:07;13.55;;;7.05;;
38479;SDS011;62333;51.980;5.934;2022-12-18T11:57:55;10.98;;;6.93;;
38479;SDS011;62333;51.980;5.934;2022-12-18T12:00:53;11.95;;;7.38;;
38479;SDS011;62333;51.980;5.934;2022-12-18T12:03:39;14.98;;;7.82;;
38479;SDS011;62333;51.980;5.934;2022-12-18T12:06:28;12.45;;;7.18;;
38479;SDS011;62333;51.980;5.934;2022-12-18T12:17:38;17.90;;;8.43;;
38479;SDS011;62333;51.980;5.934;2022-12-18T12:20:09;10.05;;;6.15;;
38479;SDS011;62333;51.980;5.934;2022-12-18T12:22:50;12.57;;;7.25;;
38479;SDS011;62333;51.980;5.934;2022-12-18T12:39:28;13.48;;;6.93;;
38479;SDS011;62333;51.980;5.934;2022-12-18T12:41:57;13.75;;;7.32;;
38479;SDS011;62333;51.980;5.934;2022-12-18T12:44:43;10.88;;;7.53;;
38479;SDS011;62333;51.980;5.934;2022-12-18T12:50:12;12.50;;;7.15;;
38479;SDS011;62333;51.980;5.934;2022-12-18T12:52:45;15.07;;;8.77;;
38479;SDS011;62333;51.980;5.934;2022-12-18T12:55:16;19.30;;;9.23;;
38479;SDS011;62333;51.980;5.934;2022-12-18T12:58:28;10.73;;;6.53;;
38479;SDS011;62333;51.980;5.934;2022-12-18T13:01:05;10.68;;;6.07;;
38479;SDS011;62333;51.980;5.934;2022-12-18T13:06:09;13.85;;;6.70;;
38479;SDS011;62333;51.980;5.934;2022-12-18T13:08:58;14.45;;;7.38;;
38479;SDS011;62333;51.980;5.934;2022-12-18T13:14:36;16.02;;;8.07;;
38479;SDS011;62333;51.980;5.934;2022-12-18T13:17:16;13.30;;;7.75;;
38479;SDS011;62333;51.980;5.934;2022-12-18T13:22:22;11.88;;;6.40;;
38479;SDS011;62333;51.980;5.934;2022-12-18T13:24:49;11.82;;;7.15;;
38479;SDS011;62333;51.980;5.934;2022-12-18T13:40:58;16.77;;;8.15;;
38479;SDS011;62333;51.980;5.934;2022-12-18T13:43:48;15.00;;;7.65;;
38479;SDS011;62333;51.980;5.934;2022-12-18T13:46:28;17.52;;;7.93;;
38479;SDS011;62333;51.980;5.934;2022-12-18T13:51:49;13.85;;;8.18;;
38479;SDS011;62333;51.980;5.934;2022-12-18T13:57:00;13.07;;;6.65;;
38479;SDS011;62333;51.980;5.934;2022-12-18T13:59:39;16.65;;;8.38;;
38479;SDS011;62333;51.980;5.934;2022-12-18T14:02:12;14.43;;;7.72;;
38479;SDS011;62333;51.980;5.934;2022-12-18T14:04:39;14.10;;;7.22;;
38479;SDS011;62333;51.980;5.934;2022-12-18T14:07:06;14.88;;;7.72;;
38479;SDS011;62333;51.980;5.934;2022-12-18T14:09:43;13.37;;;7.10;;
38479;SDS011;62333;51.980;5.934;2022-12-18T14:12:22;15.55;;;8.30;;
38479;SDS011;62333;51.980;5.934;2022-12-18T14:18:20;14.25;;;6.88;;
38479;SDS011;62333;51.980;5.934;2022-12-18T14:20:50;12.45;;;6.40;;
38479;SDS011;62333;51.980;5.934;2022-12-18T14:23:37;13.60;;;7.13;;
38479;SDS011;62333;51.980;5.934;2022-12-18T14:26:47;14.75;;;9.07;;
38479;SDS011;62333;51.980;5.934;2022-12-18T14:28:55;15.20;;;8.73;;
38479;SDS011;62333;51.980;5.934;2022-12-18T14:31:29;9.88;;;5.97;;
38479;SDS011;62333;51.980;5.934;2022-12-18T14:33:55;10.80;;;7.43;;
38479;SDS011;62333;51.980;5.934;2022-12-18T14:36:22;11.18;;;6.32;;
38479;SDS011;62333;51.980;5.934;2022-12-18T14:38:50;9.85;;;6.20;;
38479;SDS011;62333;51.980;5.934;2022-12-18T14:41:18;18.02;;;9.05;;
38479;SDS011;62333;51.980;5.934;2022-12-18T14:43:46;14.90;;;7.10;;
38479;SDS011;62333;51.980;5.934;2022-12-18T14:46:32;13.70;;;8.18;;
38479;SDS011;62333;51.980;5.934;2022-12-18T14:49:14;13.35;;;7.35;;
38479;SDS011;62333;51.980;5.934;2022-12-18T14:51:55;15.50;;;8.75;;
38479;SDS011;62333;51.980;5.934;2022-12-18T14:54:25;15.60;;;7.72;;
38479;SDS011;62333;51.980;5.934;2022-12-18T14:59:26;10.48;;;5.93;;
38479;SDS011;62333;51.980;5.934;2022-12-18T15:04:43;14.55;;;8.82;;
38479;SDS011;62333;51.980;5.934;2022-12-18T15:07:17;13.80;;;8.05;;
38479;SDS011;62333;51.980;5.934;2022-12-18T15:10:03;16.60;;;8.43;;
38479;SDS011;62333;51.980;5.934;2022-12-18T15:12:42;15.25;;;8.93;;
38479;SDS011;62333;51.980;5.934;2022-12-18T15:17:58;16.77;;;8.05;;
38479;SDS011;62333;51.980;5.934;2022-12-18T15:20:24;13.52;;;7.93;;
38479;SDS011;62333;51.980;5.934;2022-12-18T15:22:50;17.48;;;9.05;;
38479;SDS011;62333;51.980;5.934;2022-12-18T15:25:49;14.82;;;9.10;;
38479;SDS011;62333;51.980;5.934;2022-12-18T15:28:24;17.52;;;10.13;;
38479;SDS011;62333;51.980;5.934;2022-12-18T15:31:28;17.50;;;8.70;;
38479;SDS011;62333;51.980;5.934;2022-12-18T15:36:19;18.15;;;10.73;;
38479;SDS011;62333;51.980;5.934;2022-12-18T15:38:48;17.95;;;10.30;;
38479;SDS011;62333;51.980;5.934;2022-12-18T15:41:18;19.10;;;10.27;;
38479;SDS011;62333;51.980;5.934;2022-12-18T15:43:46;15.32;;;8.60;;
38479;SDS011;62333;51.980;5.934;2022-12-18T15:46:14;16.80;;;10.48;;
38479;SDS011;62333;51.980;5.934;2022-12-18T15:48:45;17.90;;;9.70;;
38479;SDS011;62333;51.980;5.934;2022-12-18T15:53:53;20.08;;;10.65;;
38479;SDS011;62333;51.980;5.934;2022-12-18T15:56:21;17.70;;;10.88;;
38479;SDS011;62333;51.980;5.934;2022-12-18T15:59:16;19.75;;;11.20;;
38479;SDS011;62333;51.980;5.934;2022-12-18T16:01:44;20.20;;;10.63;;
38479;SDS011;62333;51.980;5.934;2022-12-18T16:04:15;23.23;;;10.68;;
38479;SDS011;62333;51.980;5.934;2022-12-18T16:06:42;19.40;;;10.43;;
38479;SDS011;62333;51.980;5.934;2022-12-18T16:09:08;20.48;;;13.10;;
38479;SDS011;62333;51.980;5.934;2022-12-18T16:11:34;19.65;;;12.10;;
38479;SDS011;62333;51.980;5.934;2022-12-18T16:16:48;18.48;;;10.15;;
38479;SDS011;62333;51.980;5.934;2022-12-18T16:19:15;18.70;;;11.00;;
38479;SDS011;62333;51.980;5.934;2022-12-18T16:21:41;23.70;;;11.05;;
38479;SDS011;62333;51.980;5.934;2022-12-18T16:24:20;15.55;;;9.52;;
38479;SDS011;62333;51.980;5.934;2022-12-18T16:26:48;21.27;;;10.93;;
38479;SDS011;62333;51.980;5.934;2022-12-18T16:29:16;23.38;;;11.43;;
38479;SDS011;62333;51.980;5.934;2022-12-18T16:31:41;19.25;;;12.43;;
38479;SDS011;62333;51.980;5.934;2022-12-18T16:34:20;19.95;;;10.82;;
38479;SDS011;62333;51.980;5.934;2022-12-18T16:37:03;20.85;;;12.70;;
38479;SDS011;62333;51.980;5.934;2022-12-18T16:39:34;19.27;;;11.65;;
38479;SDS011;62333;51.980;5.934;2022-12-18T16:42:06;22.63;;;13.18;;
38479;SDS011;62333;51.980;5.934;2022-12-18T16:44:44;20.02;;;11.82;;
38479;SDS011;62333;51.980;5.934;2022-12-18T16:47:11;22.40;;;13.40;;
38479;SDS011;62333;51.980;5.934;2022-12-18T16:49:37;24.88;;;13.20;;
38479;SDS011;62333;51.980;5.934;2022-12-18T16:52:04;21.58;;;12.65;;
38479;SDS011;62333;51.980;5.934;2022-12-18T16:54:30;26.05;;;13.13;;